createdAt,value
2022-12-20T00:01:50.111Z,6.97
2022-12-20T00:04:17.299Z,6.43
2022-12-20T00:06:44.402Z,6.55
2022-12-20T00:09:12.119Z,6.40
2022-12-20T00:11:41.451Z,6.70
2022-12-20T00:14:10.351Z,5.95
2022-12-20T00:16:37.713Z,6.40
2022-12-20T00:19:07.968Z,6.70
2022-12-20T00:21:35.752Z,6.07
2022-12-20T00:24:03.973Z,6.00
2022-12-20T00:26:33.533Z,6.07
2022-12-20T00:29:01.540Z,7.00
2022-12-20T00:31:31.009Z,6.75
2022-12-20T00:33:59.903Z,6.68
2022-12-20T00:36:32.279Z,6.57
2022-12-20T00:39:02.028Z,7.00
2022-12-20T00:41:34.602Z,7.15
2022-12-20T00:44:03.066Z,6.70
2022-12-20T00:46:32.093Z,7.00
2022-12-20T00:48:59.537Z,6.78
2022-12-20T00:51:28.927Z,7.15
2022-12-20T00:53:56.497Z,7.00
2022-12-20T00:56:25.896Z,6.70
2022-12-20T00:58:59.792Z,7.05
2022-12-20T01:01:30.843Z,6.88
2022-12-20T01:03:58.636Z,7.30
2022-12-20T01:06:26.399Z,6.88
2022-12-20T01:08:54.583Z,7.47
2022-12-20T01:11:33.513Z,7.55
2022-12-20T01:14:12.296Z,7.43
2022-12-20T01:16:42.991Z,7.03
2022-12-20T01:19:13.738Z,6.85
2022-12-20T01:21:44.766Z,7.03
2022-12-20T01:24:17.543Z,7.45
2022-12-20T01:26:45.406Z,7.40
2022-12-20T01:29:14.241Z,6.88
2022-12-20T01:31:43.806Z,7.60
2022-12-20T01:34:12.084Z,7.45
2022-12-20T01:36:39.703Z,8.07
2022-12-20T01:39:13.393Z,7.47
2022-12-20T01:41:41.232Z,7.32
2022-12-20T01:44:17.589Z,7.57
2022-12-20T01:46:47.738Z,8.13
2022-12-20T01:49:30.139Z,7.78
2022-12-20T01:52:26.619Z,7.68
2022-12-20T01:54:56.680Z,8.00
2022-12-20T01:57:55.444Z,8.20
2022-12-20T02:00:23.526Z,8.25
2022-12-20T02:02:51.484Z,7.93
2022-12-20T02:05:21.322Z,8.35
2022-12-20T02:07:52.759Z,8.00
2022-12-20T02:10:23.300Z,8.15
2022-12-20T02:12:58.168Z,8.15
2022-12-20T02:15:50.300Z,8.07
2022-12-20T02:18:25.748Z,8.25
2022-12-20T02:21:24.816Z,7.97
2022-12-20T02:24:39.349Z,7.78
2022-12-20T02:27:24.956Z,8.23
2022-12-20T02:30:01.971Z,8.40
2022-12-20T02:32:38.599Z,8.73
2022-12-20T02:35:08.545Z,8.60
2022-12-20T02:37:36.093Z,8.70
2022-12-20T02:40:06.432Z,8.45
2022-12-20T02:42:34.770Z,8.68
2022-12-20T02:45:17.515Z,9.02
2022-12-20T02:47:46.071Z,8.98
2022-12-20T02:50:14.730Z,9.20
2022-12-20T02:52:42.832Z,9.25
2022-12-20T02:55:10.494Z,9.30
2022-12-20T02:58:00.279Z,9.40
2022-12-20T03:00:34.428Z,9.55
2022-12-20T03:03:20.905Z,9.65
2022-12-20T03:05:50.022Z,9.75
2022-12-20T03:08:20.729Z,9.80
2022-12-20T03:10:49.980Z,8.95
2022-12-20T03:13:17.816Z,9.23
2022-12-20T03:16:01.924Z,9.60
2022-12-20T03:18:29.263Z,9.30
2022-12-20T03:20:56.937Z,10.00
2022-12-20T03:23:24.339Z,9.13
2022-12-20T03:25:51.472Z,10.10
2022-12-20T03:28:34.084Z,9.85
2022-12-20T03:31:01.375Z,10.55
2022-12-20T03:33:30.294Z,10.95
2022-12-20T03:36:01.825Z,10.25
2022-12-20T03:38:29.260Z,10.63
2022-12-20T03:40:56.474Z,11.40
2022-12-20T03:43:23.690Z,11.00
2022-12-20T03:45:51.584Z,10.60
2022-12-20T03:48:19.202Z,10.90
2022-12-20T03:50:46.710Z,11.27
2022-12-20T03:53:14.010Z,10.75
2022-12-20T03:55:45.171Z,10.80
2022-12-20T03:58:13.488Z,11.00
2022-12-20T04:00:41.224Z,10.60
2022-12-20T04:03:38.742Z,11.13
2022-12-20T04:06:06.016Z,11.40
2022-12-20T04:08:33.210Z,11.23
2022-12-20T04:11:18.803Z,11.20
2022-12-20T04:13:54.839Z,11.07
2022-12-20T04:16:25.290Z,12.02
2022-12-20T04:18:53.869Z,11.57
2022-12-20T04:21:33.705Z,11.77
2022-12-20T04:24:02.603Z,11.77
2022-12-20T04:26:39.638Z,11.35
2022-12-20T04:29:07.186Z,11.43
2022-12-20T04:31:34.512Z,11.30
2022-12-20T04:34:01.804Z,10.95
2022-12-20T04:36:31.503Z,11.00
2022-12-20T04:39:01.330Z,11.75
2022-12-20T04:41:32.423Z,11.93
2022-12-20T04:44:06.829Z,11.13
2022-12-20T04:46:37.638Z,10.95
2022-12-20T04:49:07.366Z,10.45
2022-12-20T04:51:38.707Z,11.02
2022-12-20T04:54:06.273Z,11.38
2022-12-20T04:56:45.017Z,11.35
2022-12-20T04:59:17.257Z,12.32
2022-12-20T05:01:47.074Z,12.35
2022-12-20T05:04:21.647Z,12.43
2022-12-20T05:06:48.768Z,12.23
2022-12-20T05:09:16.093Z,12.65
2022-12-20T05:11:43.612Z,12.88
2022-12-20T05:14:11.246Z,12.80
2022-12-20T05:16:38.624Z,12.77
2022-12-20T05:19:07.533Z,13.45
2022-12-20T05:21:57.943Z,13.15
2022-12-20T05:24:43.800Z,13.07
2022-12-20T05:27:31.286Z,13.25
2022-12-20T05:29:58.517Z,13.60
2022-12-20T05:32:28.318Z,13.85
2022-12-20T05:34:56.934Z,14.32
2022-12-20T05:37:24.473Z,14.13
2022-12-20T05:39:51.639Z,13.75
2022-12-20T05:42:22.085Z,13.63
2022-12-20T05:44:52.056Z,13.48
2022-12-20T05:47:20.883Z,12.73
2022-12-20T05:49:51.994Z,12.10
2022-12-20T05:52:20.113Z,13.07
2022-12-20T05:54:47.184Z,13.50
2022-12-20T05:57:17.095Z,12.75
2022-12-20T05:59:44.989Z,13.60
2022-12-20T06:02:17.217Z,13.90
2022-12-20T06:04:46.192Z,14.65
2022-12-20T06:07:19.801Z,15.95
2022-12-20T06:09:50.139Z,14.35
2022-12-20T06:12:19.422Z,13.52
2022-12-20T06:14:47.500Z,13.43
2022-12-20T06:17:14.792Z,13.50
2022-12-20T06:19:42.166Z,13.38
2022-12-20T06:22:11.519Z,14.00
2022-12-20T06:24:48.313Z,13.52
2022-12-20T06:27:18.555Z,14.07
2022-12-20T06:29:54.539Z,12.98
2022-12-20T06:32:25.892Z,13.25
2022-12-20T06:34:55.153Z,12.82
2022-12-20T06:37:22.772Z,13.27
2022-12-20T06:39:49.841Z,12.45
2022-12-20T06:42:17.171Z,12.90
2022-12-20T06:44:45.350Z,12.25
2022-12-20T06:47:12.555Z,13.02
2022-12-20T06:49:39.752Z,12.70
2022-12-20T06:52:14.343Z,13.70
2022-12-20T06:54:50.745Z,13.20
2022-12-20T06:57:20.108Z,13.80
2022-12-20T06:59:48.790Z,13.25
2022-12-20T07:02:16.690Z,13.27
2022-12-20T07:04:44.150Z,12.45
2022-12-20T07:07:13.368Z,13.20
2022-12-20T07:09:41.929Z,13.38
2022-12-20T07:12:10.255Z,12.93
2022-12-20T07:14:37.383Z,12.30
2022-12-20T07:17:06.357Z,11.68
2022-12-20T07:19:34.365Z,10.80
2022-12-20T07:22:01.817Z,11.55
2022-12-20T07:24:29.113Z,11.90
2022-12-20T07:26:56.253Z,11.60
2022-12-20T07:29:23.416Z,12.35
2022-12-20T07:31:50.732Z,12.85
2022-12-20T07:34:17.984Z,12.30
2022-12-20T07:36:45.487Z,12.25
2022-12-20T07:39:12.652Z,13.32
2022-12-20T07:41:39.764Z,13.88
2022-12-20T07:44:12.374Z,13.30
2022-12-20T07:46:39.651Z,12.98
2022-12-20T07:49:06.900Z,14.20
2022-12-20T07:51:38.603Z,14.10
2022-12-20T07:54:11.864Z,13.48
2022-12-20T07:56:42.902Z,12.77
2022-12-20T07:59:14.159Z,13.75
2022-12-20T08:01:45.617Z,13.20
2022-12-20T08:04:16.236Z,12.65
2022-12-20T08:06:44.060Z,13.70
2022-12-20T08:09:13.754Z,15.48
2022-12-20T08:11:45.147Z,12.15
2022-12-20T08:14:13.164Z,15.55
2022-12-20T08:16:40.303Z,15.98
2022-12-20T08:19:07.757Z,17.52
2022-12-20T08:21:35.020Z,19.95
2022-12-20T08:24:02.374Z,18.73
2022-12-20T08:26:29.642Z,19.90
2022-12-20T08:28:56.771Z,17.65
2022-12-20T08:31:24.523Z,18.27
2022-12-20T08:33:55.475Z,17.70
2022-12-20T08:36:22.650Z,16.33
2022-12-20T08:38:49.821Z,14.80
2022-12-20T08:41:17.110Z,14.45
2022-12-20T08:43:44.525Z,13.88
2022-12-20T08:46:12.800Z,14.07
2022-12-20T08:48:40.460Z,13.02
2022-12-20T08:51:10.183Z,13.63
2022-12-20T08:53:38.087Z,11.13
2022-12-20T08:56:08.032Z,12.80
2022-12-20T08:58:36.348Z,11.57
2022-12-20T09:01:07.060Z,13.00
2022-12-20T09:03:36.479Z,11.95
2022-12-20T09:06:13.495Z,12.48
2022-12-20T09:08:41.252Z,10.10
2022-12-20T09:11:14.514Z,10.32
2022-12-20T09:13:44.856Z,12.05
2022-12-20T09:16:15.092Z,17.50
2022-12-20T09:18:42.859Z,14.35
2022-12-20T09:21:11.812Z,14.98
2022-12-20T09:23:39.168Z,19.83
2022-12-20T09:26:13.337Z,17.23
2022-12-20T09:28:41.352Z,14.30
2022-12-20T09:31:11.766Z,12.32
2022-12-20T09:33:39.650Z,11.98
2022-12-20T09:36:08.086Z,12.18
2022-12-20T09:38:35.248Z,11.85
2022-12-20T09:41:05.880Z,11.73
2022-12-20T09:43:33.958Z,11.30
2022-12-20T09:46:04.637Z,10.90
2022-12-20T09:48:39.024Z,11.15
2022-12-20T09:51:24.433Z,11.20
2022-12-20T09:54:13.173Z,11.00
2022-12-20T09:56:47.264Z,11.63
2022-12-20T09:59:19.987Z,12.02
2022-12-20T10:01:50.249Z,11.45
2022-12-20T10:04:32.649Z,11.65
2022-12-20T10:07:18.245Z,12.18
2022-12-20T10:12:30.417Z,11.32
2022-12-20T10:15:16.267Z,11.40
2022-12-20T10:17:58.725Z,10.80
2022-12-20T10:20:36.598Z,12.35
2022-12-20T10:23:30.922Z,11.63
2022-12-20T10:26:00.279Z,11.02
2022-12-20T10:28:32.075Z,12.57
2022-12-20T10:31:03.180Z,12.43
2022-12-20T10:33:31.930Z,12.38
2022-12-20T10:36:21.144Z,12.15
2022-12-20T10:38:54.565Z,11.70
2022-12-20T10:41:28.411Z,14.38
2022-12-20T10:43:59.127Z,13.70
2022-12-20T10:46:41.701Z,13.50
2022-12-20T10:49:21.364Z,13.63
2022-12-20T10:51:56.900Z,15.30
2022-12-20T10:54:29.401Z,15.20
2022-12-20T10:57:00.339Z,14.55
2022-12-20T10:59:36.896Z,15.10
2022-12-20T11:02:38.780Z,15.80
2022-12-20T11:05:13.160Z,16.13
2022-12-20T11:08:40.510Z,15.55
2022-12-20T11:11:24.854Z,14.48
2022-12-20T11:13:52.762Z,15.35
2022-12-20T11:16:25.244Z,14.93
2022-12-20T11:19:01.591Z,14.15
2022-12-20T11:21:38.272Z,16.05
2022-12-20T11:24:25.796Z,16.60
2022-12-20T11:27:22.577Z,16.60
2022-12-20T11:30:03.552Z,16.05
2022-12-20T11:32:35.880Z,16.63
2022-12-20T11:35:17.352Z,15.90
2022-12-20T11:37:44.430Z,16.42
2022-12-20T11:40:27.667Z,15.57
2022-12-20T11:43:08.129Z,15.73
2022-12-20T11:45:44.449Z,15.50
2022-12-20T11:48:27.171Z,15.77
2022-12-20T11:51:21.480Z,15.73
2022-12-20T11:54:18.647Z,16.33
2022-12-20T11:56:50.214Z,18.20
2022-12-20T11:59:45.423Z,17.17
2022-12-20T12:02:38.631Z,17.98
2022-12-20T12:05:14.251Z,20.52
2022-12-20T12:07:45.497Z,20.13
2022-12-20T12:10:22.912Z,19.92
2022-12-20T12:13:08.491Z,19.98
2022-12-20T12:18:30.610Z,15.40
2022-12-20T12:21:10.144Z,15.63
2022-12-20T12:24:11.935Z,14.60
2022-12-20T12:26:43.034Z,14.27
2022-12-20T12:29:19.885Z,14.57
2022-12-20T12:32:15.978Z,14.73
2022-12-20T12:35:21.775Z,14.52
2022-12-20T12:38:37.347Z,13.82
2022-12-20T12:41:46.270Z,15.27
2022-12-20T12:44:19.506Z,14.27
2022-12-20T12:46:54.319Z,15.07
2022-12-20T12:49:25.028Z,13.45
2022-12-20T12:51:57.972Z,13.27
2022-12-20T12:54:29.112Z,12.75
2022-12-20T12:57:08.003Z,13.02
2022-12-20T12:59:36.222Z,13.30
2022-12-20T13:02:06.029Z,13.10
2022-12-20T13:04:58.524Z,13.30
2022-12-20T13:07:37.987Z,11.73
2022-12-20T13:10:08.512Z,13.48
2022-12-20T13:12:38.793Z,13.25
2022-12-20T13:15:22.614Z,11.57
2022-12-20T13:17:59.976Z,11.13
2022-12-20T13:20:32.691Z,11.82
2022-12-20T13:23:07.583Z,10.93
2022-12-20T13:25:53.275Z,11.63
2022-12-20T13:28:23.243Z,12.65
2022-12-20T13:31:11.008Z,13.30
2022-12-20T13:33:54.278Z,11.57
2022-12-20T13:36:37.759Z,11.88
2022-12-20T13:39:25.349Z,11.20
2022-12-20T13:42:14.980Z,12.25
2022-12-20T13:44:47.289Z,12.40
2022-12-20T13:47:36.605Z,13.68
2022-12-20T13:50:24.786Z,13.52
2022-12-20T13:52:54.836Z,15.48
2022-12-20T13:55:39.876Z,14.88
2022-12-20T13:58:14.254Z,19.02
2022-12-20T14:00:41.998Z,19.85
2022-12-20T14:03:40.645Z,19.05
2022-12-20T14:06:12.572Z,19.73
2022-12-20T14:08:49.441Z,19.77
2022-12-20T14:11:18.466Z,21.48
2022-12-20T14:14:13.799Z,23.83
2022-12-20T14:16:41.274Z,22.08
2022-12-20T14:19:14.865Z,21.48
2022-12-20T14:21:45.318Z,19.45
2022-12-20T14:24:18.096Z,19.90
2022-12-20T14:26:51.670Z,19.92
2022-12-20T14:29:25.178Z,18.70
2022-12-20T14:31:52.344Z,19.50
2022-12-20T14:34:30.095Z,19.10
2022-12-20T14:37:18.373Z,20.83
2022-12-20T14:39:57.314Z,20.08
2022-12-20T14:42:29.886Z,20.80
2022-12-20T14:45:19.033Z,20.55
2022-12-20T14:48:07.704Z,21.63
2022-12-20T14:50:43.352Z,22.83
2022-12-20T14:53:25.366Z,24.33
2022-12-20T14:55:52.972Z,29.25
2022-12-20T14:58:30.704Z,28.58
2022-12-20T15:01:02.481Z,28.10
2022-12-20T15:03:30.254Z,27.73
2022-12-20T15:05:59.597Z,25.35
2022-12-20T15:08:33.951Z,30.90
2022-12-20T15:11:11.165Z,26.30
2022-12-20T15:13:44.246Z,29.30
2022-12-20T15:16:20.021Z,30.23
2022-12-20T15:18:55.137Z,30.52
2022-12-20T15:23:54.535Z,24.92
2022-12-20T15:26:26.829Z,22.70
2022-12-20T15:28:55.004Z,22.40
2022-12-20T15:31:32.950Z,23.02
2022-12-20T15:34:02.663Z,21.90
2022-12-20T15:36:30.836Z,22.52
2022-12-20T15:39:15.393Z,22.33
2022-12-20T15:41:49.038Z,21.38
2022-12-20T15:44:28.474Z,22.10
2022-12-20T15:46:56.285Z,19.27
2022-12-20T15:49:30.912Z,19.13
2022-12-20T15:51:59.861Z,19.80
2022-12-20T15:54:33.430Z,19.45
2022-12-20T15:57:03.383Z,18.35
2022-12-20T16:02:22.523Z,19.60
2022-12-20T16:04:50.703Z,18.40
2022-12-20T16:07:18.081Z,17.55
2022-12-20T16:09:45.499Z,18.33
2022-12-20T16:12:23.950Z,17.42
2022-12-20T16:14:51.885Z,16.80
2022-12-20T16:17:19.032Z,17.10
2022-12-20T16:19:46.936Z,17.20
2022-12-20T16:22:20.831Z,18.02
2022-12-20T16:24:48.844Z,17.27
2022-12-20T16:27:16.244Z,17.55
2022-12-20T16:29:43.588Z,17.80
2022-12-20T16:32:19.206Z,17.92
2022-12-20T16:34:47.225Z,17.70
2022-12-20T16:37:14.408Z,16.13
2022-12-20T16:39:42.128Z,19.90
2022-12-20T16:42:22.818Z,19.38
2022-12-20T16:44:54.513Z,16.55
2022-12-20T16:47:22.328Z,16.67
2022-12-20T16:49:53.267Z,18.55
2022-12-20T16:52:22.722Z,17.30
2022-12-20T16:54:50.898Z,16.65
2022-12-20T16:57:18.038Z,15.82
2022-12-20T16:59:46.664Z,16.83
2022-12-20T17:02:28.802Z,16.70
2022-12-20T17:04:56.632Z,17.00
2022-12-20T17:07:23.840Z,17.13
2022-12-20T17:09:51.396Z,15.60
2022-12-20T17:12:20.842Z,15.93
2022-12-20T17:14:49.311Z,17.40
2022-12-20T17:17:17.760Z,16.42
2022-12-20T17:19:45.283Z,17.80
2022-12-20T17:24:58.248Z,17.05
2022-12-20T17:27:25.562Z,18.13
2022-12-20T17:29:52.698Z,18.20
2022-12-20T17:32:23.107Z,17.38
2022-12-20T17:34:51.670Z,19.08
2022-12-20T17:37:18.927Z,17.05
2022-12-20T17:39:46.226Z,16.20
2022-12-20T17:42:14.667Z,16.83
2022-12-20T17:44:41.989Z,15.05
2022-12-20T17:47:09.326Z,15.73
2022-12-20T17:49:36.405Z,15.65
2022-12-20T17:52:03.987Z,14.05
2022-12-20T17:54:39.019Z,13.85
2022-12-20T17:57:13.291Z,15.38
2022-12-20T17:59:40.679Z,16.55
2022-12-20T18:02:34.240Z,16.83
2022-12-20T18:05:03.509Z,19.02
2022-12-20T18:07:30.968Z,17.60
2022-12-20T18:09:59.294Z,18.15
2022-12-20T18:12:30.314Z,18.55
2022-12-20T18:15:01.314Z,18.15
2022-12-20T18:17:32.680Z,17.95
2022-12-20T18:20:01.423Z,18.17
2022-12-20T18:22:32.384Z,19.27
2022-12-20T18:25:00.321Z,18.67
2022-12-20T18:27:30.751Z,18.23
2022-12-20T18:29:59.294Z,16.50
2022-12-20T18:32:26.580Z,18.15
2022-12-20T18:34:54.258Z,17.55
2022-12-20T18:37:22.503Z,18.55
2022-12-20T18:39:49.829Z,16.90
2022-12-20T18:42:17.220Z,20.10
2022-12-20T18:44:44.686Z,18.73
2022-12-20T18:47:12.004Z,18.38
2022-12-20T18:49:39.763Z,19.13
2022-12-20T18:52:07.271Z,17.67
2022-12-20T18:54:35.364Z,25.05
2022-12-20T18:57:05.967Z,25.02
2022-12-20T18:59:34.936Z,22.67
2022-12-20T19:02:02.795Z,24.60
2022-12-20T19:04:30.075Z,26.70
2022-12-20T19:06:57.518Z,24.88
2022-12-20T19:09:24.809Z,24.77
2022-12-20T19:11:56.916Z,24.27
2022-12-20T19:14:25.214Z,21.48
2022-12-20T19:16:52.373Z,20.35
2022-12-20T19:19:20.749Z,19.63
2022-12-20T19:21:48.711Z,19.77
2022-12-20T19:24:16.174Z,20.65
2022-12-20T19:26:44.944Z,19.40
2022-12-20T19:29:12.546Z,22.00
2022-12-20T19:31:39.899Z,24.65
2022-12-20T19:34:10.775Z,24.60
2022-12-20T19:36:40.512Z,23.25
2022-12-20T19:39:22.630Z,22.48
2022-12-20T19:42:21.812Z,24.67
2022-12-20T19:44:39.281Z,23.25
2022-12-20T19:47:07.646Z,22.25
2022-12-20T19:49:36.459Z,22.23
2022-12-20T19:52:04.641Z,21.15
2022-12-20T19:54:32.186Z,22.25
2022-12-20T19:56:59.412Z,20.38
2022-12-20T19:59:26.508Z,20.95
2022-12-20T20:01:53.817Z,19.15
2022-12-20T20:04:21.029Z,18.17
2022-12-20T20:06:48.410Z,18.77
2022-12-20T20:09:15.771Z,17.20
2022-12-20T20:11:43.637Z,21.63
2022-12-20T20:14:11.416Z,19.90
2022-12-20T20:16:38.745Z,19.58
2022-12-20T20:19:06.156Z,17.08
2022-12-20T20:21:36.602Z,15.55
2022-12-20T20:24:04.512Z,15.82
2022-12-20T20:26:31.941Z,16.17
2022-12-20T20:29:01.516Z,16.42
2022-12-20T20:31:29.275Z,15.38
2022-12-20T20:33:58.282Z,15.02
2022-12-20T20:36:25.476Z,14.13
2022-12-20T20:38:52.891Z,14.48
2022-12-20T20:41:20.366Z,14.90
2022-12-20T20:43:48.175Z,15.23
2022-12-20T20:46:17.128Z,18.00
2022-12-20T20:48:45.007Z,15.30
2022-12-20T20:51:12.487Z,13.30
2022-12-20T20:53:39.691Z,13.65
2022-12-20T20:56:08.452Z,12.90
2022-12-20T20:58:36.198Z,14.10
2022-12-20T21:01:06.242Z,14.57
2022-12-20T21:03:33.553Z,13.20
2022-12-20T21:06:37.088Z,14.32
2022-12-20T21:08:47.930Z,13.20
2022-12-20T21:11:15.735Z,13.55
2022-12-20T21:13:43.845Z,11.93
2022-12-20T21:16:14.080Z,12.05
2022-12-20T21:18:41.328Z,11.68
2022-12-20T21:21:13.455Z,11.85
2022-12-20T21:23:46.517Z,11.32
2022-12-20T21:26:15.481Z,11.52
2022-12-20T21:28:44.170Z,12.43
2022-12-20T21:31:16.803Z,13.00
2022-12-20T21:33:46.057Z,13.10
2022-12-20T21:36:18.695Z,11.43
2022-12-20T21:38:50.556Z,12.80
2022-12-20T21:41:19.523Z,11.82
2022-12-20T21:43:47.043Z,13.00
2022-12-20T21:46:14.370Z,13.07
2022-12-20T21:48:43.452Z,13.48
2022-12-20T21:51:22.541Z,13.88
2022-12-20T21:53:53.035Z,15.05
2022-12-20T21:56:21.455Z,15.52
2022-12-20T21:58:49.064Z,15.88
2022-12-20T22:01:19.959Z,16.80
2022-12-20T22:03:50.659Z,17.60
2022-12-20T22:06:17.900Z,17.83
2022-12-20T22:08:45.238Z,19.02
2022-12-20T22:11:15.289Z,18.75
2022-12-20T22:13:42.817Z,19.73
2022-12-20T22:16:18.585Z,20.33
2022-12-20T22:18:50.324Z,20.10
2022-12-20T22:21:19.342Z,20.02
2022-12-20T22:23:46.811Z,19.45
2022-12-20T22:26:16.964Z,19.17
2022-12-20T22:28:49.507Z,18.52
2022-12-20T22:31:17.806Z,19.10
2022-12-20T22:33:45.515Z,18.77
2022-12-20T22:36:15.610Z,18.25
2022-12-20T22:38:46.239Z,17.80
2022-12-20T22:41:14.728Z,17.60
2022-12-20T22:43:43.247Z,17.58
2022-12-20T22:46:11.313Z,17.95
2022-12-20T22:48:40.180Z,18.95
2022-12-20T22:51:13.053Z,23.65
2022-12-20T22:53:41.038Z,25.02
2022-12-20T22:56:09.777Z,23.70
2022-12-20T22:58:37.734Z,25.33
2022-12-20T23:01:08.693Z,24.63
2022-12-20T23:03:37.396Z,25.48
2022-12-20T23:06:07.450Z,26.48
2022-12-20T23:08:37.045Z,25.77
2022-12-20T23:11:25.624Z,30.75
2022-12-20T23:14:11.695Z,31.73
2022-12-20T23:16:39.101Z,36.42
2022-12-20T23:19:06.445Z,35.50
2022-12-20T23:21:52.082Z,37.92
2022-12-20T23:24:19.258Z,39.72
2022-12-20T23:26:46.349Z,37.95
2022-12-20T23:29:14.200Z,34.13
2022-12-20T23:31:42.287Z,34.10
2022-12-20T23:34:10.763Z,32.92
2022-12-20T23:36:38.241Z,32.15
2022-12-20T23:39:05.937Z,29.23
2022-12-20T23:41:33.303Z,27.08
2022-12-20T23:44:00.634Z,27.90
2022-12-20T23:46:27.918Z,26.60
2022-12-20T23:48:55.571Z,27.27
2022-12-20T23:51:22.930Z,26.67
2022-12-20T23:53:52.035Z,26.67
2022-12-20T23:56:22.068Z,23.95
2022-12-20T23:58:55.131Z,22.35
